createdAt,value
2018-04-10T00:06:58.884Z,0
2018-04-10T00:16:58.841Z,0
2018-04-10T00:26:58.883Z,0
2018-04-10T00:36:58.881Z,0
2018-04-10T00:46:58.844Z,0
2018-04-10T00:56:58.971Z,0
2018-04-10T01:06:59.010Z,0
2018-04-10T01:16:58.832Z,0
2018-04-10T01:26:58.836Z,0
2018-04-10T01:36:58.815Z,0
2018-04-10T01:46:58.883Z,0
2018-04-10T01:56:58.867Z,0
2018-04-10T02:06:58.777Z,0
2018-04-10T02:16:59.011Z,0
2018-04-10T02:26:59.022Z,0
2018-04-10T02:36:58.979Z,0
2018-04-10T02:46:59.019Z,0
2018-04-10T02:56:59.045Z,0
2018-04-10T03:06:59.004Z,0
2018-04-10T03:16:59.297Z,0
2018-04-10T03:26:58.936Z,0
2018-04-10T03:36:59.019Z,0
2018-04-10T03:46:58.962Z,0
2018-04-10T03:56:58.809Z,0
2018-04-10T04:06:58.867Z,0
2018-04-10T04:16:58.809Z,4
2018-04-10T04:26:58.865Z,16
2018-04-10T04:36:58.856Z,64
2018-04-10T04:46:58.821Z,176
2018-04-10T04:56:58.878Z,504
2018-04-10T05:06:58.803Z,1272
2018-04-10T05:16:58.889Z,2096
2018-04-10T05:26:58.833Z,3208
2018-04-10T05:36:58.860Z,3640
2018-04-10T05:46:58.821Z,4028
2018-04-10T05:56:58.980Z,4740
2018-04-10T06:06:58.864Z,5280
2018-04-10T06:16:58.898Z,6344
2018-04-10T06:26:58.905Z,7376
2018-04-10T06:36:58.918Z,8560
2018-04-10T06:46:58.878Z,9020
2018-04-10T06:56:59.002Z,9412
2018-04-10T07:06:59.231Z,9208
2018-04-10T07:16:59.050Z,9012
2018-04-10T07:27:00.094Z,8612
2018-04-10T07:36:59.331Z,8840
2018-04-10T07:46:59.065Z,9376
2018-04-10T07:56:59.049Z,10676
2018-04-10T08:06:59.013Z,12508
2018-04-10T08:16:58.995Z,43552
2018-04-10T08:26:59.030Z,35264
2018-04-10T08:36:58.980Z,10468
2018-04-10T08:46:59.046Z,10064
2018-04-10T08:56:59.000Z,10296
2018-04-10T09:06:58.999Z,10364
2018-04-10T09:16:59.095Z,8728
2018-04-10T09:26:59.048Z,7556
2018-04-10T09:36:59.108Z,7140
2018-04-10T09:46:59.095Z,6720
2018-04-10T09:56:58.970Z,6804
2018-04-10T10:06:59.073Z,6688
2018-04-10T10:16:58.963Z,7192
2018-04-10T10:26:59.244Z,6420
2018-04-10T10:36:58.983Z,6560
2018-04-10T10:46:59.024Z,6368
2018-04-10T10:56:59.015Z,6796
2018-04-10T11:06:59.037Z,7736
2018-04-10T11:16:58.973Z,8220
2018-04-10T11:26:59.034Z,7624
2018-04-10T11:36:58.969Z,7420
2018-04-10T11:46:59.113Z,7184
2018-04-10T11:56:59.066Z,6292
2018-04-10T12:06:59.007Z,6152
2018-04-10T12:16:59.064Z,5944
2018-04-10T12:26:59.013Z,5436
2018-04-10T12:36:59.102Z,5308
2018-04-10T12:46:59.007Z,5588
2018-04-10T12:56:59.035Z,5416
2018-04-10T13:06:59.098Z,5384
2018-04-10T13:16:59.042Z,5216
2018-04-10T13:26:59.082Z,6076
2018-04-10T13:36:59.027Z,6456
2018-04-10T13:46:59.003Z,5860
2018-04-10T13:56:59.070Z,7368
2018-04-10T14:06:59.234Z,7832
2018-04-10T14:16:59.298Z,7140
2018-04-10T14:26:59.278Z,6844
2018-04-10T14:36:59.454Z,6720
2018-04-10T14:46:59.123Z,6456
2018-04-10T14:56:59.043Z,6784
2018-04-10T15:06:59.279Z,7192
2018-04-10T15:16:59.182Z,6900
2018-04-10T15:26:59.055Z,6464
2018-04-10T15:37:00.079Z,5488
2018-04-10T15:46:59.360Z,4676
2018-04-10T15:56:59.196Z,4252
2018-04-10T16:06:59.508Z,3996
2018-04-10T16:16:59.178Z,3604
2018-04-10T16:27:00.678Z,3280
2018-04-10T16:36:59.151Z,3232
2018-04-10T16:46:59.179Z,2984
2018-04-10T16:56:59.428Z,2708
2018-04-10T17:06:59.166Z,2392
2018-04-10T17:16:59.007Z,2068
2018-04-10T17:27:00.107Z,1740
2018-04-10T17:36:59.102Z,1396
2018-04-10T17:46:59.116Z,984
2018-04-10T17:56:59.214Z,632
2018-04-10T18:07:00.234Z,356
2018-04-10T18:16:59.137Z,168
2018-04-10T18:26:59.126Z,56
2018-04-10T18:36:59.180Z,16
2018-04-10T18:46:59.109Z,0
2018-04-10T18:56:59.265Z,0
2018-04-10T19:06:59.071Z,0
2018-04-10T19:16:59.283Z,0
2018-04-10T19:26:59.565Z,0
2018-04-10T19:36:59.088Z,0
2018-04-10T19:46:59.220Z,0
2018-04-10T19:56:59.089Z,0
2018-04-10T20:06:59.313Z,0
2018-04-10T20:16:59.195Z,0
2018-04-10T20:26:59.103Z,0
2018-04-10T20:36:59.146Z,0
2018-04-10T20:46:59.238Z,0
2018-04-10T20:56:59.238Z,0
2018-04-10T21:06:59.336Z,0
2018-04-10T21:17:00.266Z,0
2018-04-10T21:26:59.401Z,0
2018-04-10T21:36:59.096Z,0
2018-04-10T21:46:59.341Z,0
2018-04-10T21:57:01.051Z,0
2018-04-10T22:06:59.246Z,0
2018-04-10T22:16:59.131Z,0
2018-04-10T22:26:59.152Z,0
2018-04-10T22:36:59.022Z,0
2018-04-10T22:46:59.076Z,0
2018-04-10T22:56:59.237Z,0
2018-04-10T23:06:59.111Z,0
2018-04-10T23:16:59.178Z,0
2018-04-10T23:26:59.137Z,0
2018-04-10T23:36:59.108Z,0
2018-04-10T23:46:59.198Z,0
2018-04-10T23:56:59.120Z,0
